sensor_id;sensor_type;location;lat;lon;timestamp;noise_LAeq;noise_LA_min;noise_LA_max;noise_LA01;noise_LA95
66455;Laerm;57651;51.438;5.982;2022-08-21T00:00:07;48.13;46.95;49.78;;
66455;Laerm;57651;51.438;5.982;2022-08-21T00:00:20;48.38;47.01;53.80;;
66455;Laerm;57651;51.438;5.982;2022-08-21T00:00:30;48.66;47.07;52.55;;
66455;Laerm;57651;51.438;5.982;2022-08-21T00:00:41;48.18;47.09;49.93;;
66455;Laerm;57651;51.438;5.982;2022-08-21T00:00:52;48.22;47.11;50.09;;
66455;Laerm;57651;51.438;5.982;2022-08-21T00:01:03;48.50;47.08;50.51;;
66455;Laerm;57651;51.438;5.982;2022-08-21T00:01:17;48.17;47.16;50.25;;
66455;Laerm;57651;51.438;5.982;2022-08-21T00:01:28;48.29;47.12;50.10;;
66455;Laerm;57651;51.438;5.982;2022-08-21T00:01:39;48.56;46.91;50.47;;
66455;Laerm;57651;51.438;5.982;2022-08-21T00:01:50;48.72;47.34;51.27;;
66455;Laerm;57651;51.438;5.982;2022-08-21T00:02:00;48.37;47.05;49.93;;
66455;Laerm;57651;51.438;5.982;2022-08-21T00:02:18;48.46;47.14;49.90;;
66455;Laerm;57651;51.438;5.982;2022-08-21T00:02:29;48.72;47.28;50.82;;
66455;Laerm;57651;51.438;5.982;2022-08-21T00:02:47;49.64;47.46;52.07;;
66455;Laerm;57651;51.438;5.982;2022-08-21T00:03:00;49.08;47.31;51.81;;
66455;Laerm;57651;51.438;5.982;2022-08-21T00:03:11;48.76;47.29;51.88;;
66455;Laerm;57651;51.438;5.982;2022-08-21T00:03:22;48.79;47.45;50.55;;
66455;Laerm;57651;51.438;5.982;2022-08-21T00:03:32;48.40;47.04;50.19;;
66455;Laerm;57651;51.438;5.982;2022-08-21T00:03:43;49.13;46.90;57.63;;
66455;Laerm;57651;51.438;5.982;2022-08-21T00:03:54;48.56;47.07;51.16;;
66455;Laerm;57651;51.438;5.982;2022-08-21T00:04:09;48.45;47.12;51.74;;
66455;Laerm;57651;51.438;5.982;2022-08-21T00:04:21;48.39;46.89;51.33;;
66455;Laerm;57651;51.438;5.982;2022-08-21T00:04:32;48.83;47.14;50.79;;
66455;Laerm;57651;51.438;5.982;2022-08-21T00:04:42;48.17;46.94;50.43;;
66455;Laerm;57651;51.438;5.982;2022-08-21T00:04:53;48.18;46.84;50.31;;
66455;Laerm;57651;51.438;5.982;2022-08-21T00:05:04;48.23;46.93;50.06;;
66455;Laerm;57651;51.438;5.982;2022-08-21T00:05:15;48.11;46.91;49.93;;
66455;Laerm;57651;51.438;5.982;2022-08-21T00:05:25;48.19;47.10;49.69;;
66455;Laerm;57651;51.438;5.982;2022-08-21T00:05:37;48.11;46.74;49.58;;
66455;Laerm;57651;51.438;5.982;2022-08-21T00:05:49;48.51;46.80;51.40;;
66455;Laerm;57651;51.438;5.982;2022-08-21T00:06:00;48.37;46.93;51.94;;
66455;Laerm;57651;51.438;5.982;2022-08-21T00:06:10;48.69;47.21;50.55;;
66455;Laerm;57651;51.438;5.982;2022-08-21T00:06:21;48.65;47.02;51.55;;
66455;Laerm;57651;51.438;5.982;2022-08-21T00:06:34;48.36;47.16;49.72;;
66455;Laerm;57651;51.438;5.982;2022-08-21T00:06:44;48.40;47.00;50.05;;
66455;Laerm;57651;51.438;5.982;2022-08-21T00:06:55;48.33;47.20;50.28;;
66455;Laerm;57651;51.438;5.982;2022-08-21T00:07:06;48.32;47.21;50.07;;
66455;Laerm;57651;51.438;5.982;2022-08-21T00:07:17;48.42;47.18;50.20;;
66455;Laerm;57651;51.438;5.982;2022-08-21T00:07:27;50.00;47.49;53.33;;
66455;Laerm;57651;51.438;5.982;2022-08-21T00:07:38;49.23;46.86;52.13;;
66455;Laerm;57651;51.438;5.982;2022-08-21T00:07:49;48.34;46.99;50.40;;
66455;Laerm;57651;51.438;5.982;2022-08-21T00:07:59;48.34;46.91;49.99;;
66455;Laerm;57651;51.438;5.982;2022-08-21T00:08:10;48.29;46.95;50.17;;
66455;Laerm;57651;51.438;5.982;2022-08-21T00:08:21;48.22;47.03;49.71;;
66455;Laerm;57651;51.438;5.982;2022-08-21T00:08:31;48.22;46.97;50.04;;
66455;Laerm;57651;51.438;5.982;2022-08-21T00:08:42;48.15;47.03;50.18;;
66455;Laerm;57651;51.438;5.982;2022-08-21T00:08:52;48.14;47.14;50.20;;
66455;Laerm;57651;51.438;5.982;2022-08-21T00:09:03;48.25;47.13;49.78;;
66455;Laerm;57651;51.438;5.982;2022-08-21T00:09:14;48.37;47.18;50.68;;
66455;Laerm;57651;51.438;5.982;2022-08-21T00:09:25;48.41;46.80;50.40;;
66455;Laerm;57651;51.438;5.982;2022-08-21T00:09:36;48.37;46.95;50.35;;
66455;Laerm;57651;51.438;5.982;2022-08-21T00:09:46;48.32;47.18;50.28;;
66455;Laerm;57651;51.438;5.982;2022-08-21T00:09:57;48.45;47.29;50.70;;
66455;Laerm;57651;51.438;5.982;2022-08-21T00:10:09;48.30;47.14;49.92;;
66455;Laerm;57651;51.438;5.982;2022-08-21T00:10:19;48.20;47.07;50.04;;
66455;Laerm;57651;51.438;5.982;2022-08-21T00:10:30;48.30;47.21;50.30;;
66455;Laerm;57651;51.438;5.982;2022-08-21T00:10:41;48.17;46.88;50.25;;
66455;Laerm;57651;51.438;5.982;2022-08-21T00:10:52;48.10;46.74;49.97;;
66455;Laerm;57651;51.438;5.982;2022-08-21T00:11:03;48.08;47.00;50.19;;
66455;Laerm;57651;51.438;5.982;2022-08-21T00:11:14;48.21;47.02;50.04;;
66455;Laerm;57651;51.438;5.982;2022-08-21T00:11:24;48.10;46.85;50.34;;
66455;Laerm;57651;51.438;5.982;2022-08-21T00:11:37;48.21;47.11;50.69;;
66455;Laerm;57651;51.438;5.982;2022-08-21T00:11:48;48.34;46.90;51.33;;
66455;Laerm;57651;51.438;5.982;2022-08-21T00:11:58;48.08;46.59;49.63;;
66455;Laerm;57651;51.438;5.982;2022-08-21T00:12:09;48.12;46.87;49.92;;
66455;Laerm;57651;51.438;5.982;2022-08-21T00:12:19;48.13;47.11;49.76;;
66455;Laerm;57651;51.438;5.982;2022-08-21T00:12:30;48.12;46.81;49.86;;
66455;Laerm;57651;51.438;5.982;2022-08-21T00:12:41;48.14;47.13;49.81;;
66455;Laerm;57651;51.438;5.982;2022-08-21T00:12:52;48.13;46.78;49.89;;
66455;Laerm;57651;51.438;5.982;2022-08-21T00:13:03;48.20;46.98;49.79;;
66455;Laerm;57651;51.438;5.982;2022-08-21T00:13:14;48.14;47.06;50.03;;
66455;Laerm;57651;51.438;5.982;2022-08-21T00:13:25;48.09;47.03;49.72;;
66455;Laerm;57651;51.438;5.982;2022-08-21T00:13:35;48.08;46.75;50.19;;
66455;Laerm;57651;51.438;5.982;2022-08-21T00:13:46;48.19;46.63;51.19;;
66455;Laerm;57651;51.438;5.982;2022-08-21T00:13:56;48.12;46.51;49.99;;
66455;Laerm;57651;51.438;5.982;2022-08-21T00:14:07;48.19;46.72;51.48;;
66455;Laerm;57651;51.438;5.982;2022-08-21T00:14:18;48.16;46.86;50.34;;
66455;Laerm;57651;51.438;5.982;2022-08-21T00:14:28;48.03;46.87;49.92;;
66455;Laerm;57651;51.438;5.982;2022-08-21T00:14:39;48.01;46.86;50.04;;
66455;Laerm;57651;51.438;5.982;2022-08-21T00:14:50;48.03;46.80;50.15;;
66455;Laerm;57651;51.438;5.982;2022-08-21T00:15:02;48.09;46.88;49.51;;
66455;Laerm;57651;51.438;5.982;2022-08-21T00:15:15;48.11;46.88;49.88;;
66455;Laerm;57651;51.438;5.982;2022-08-21T00:15:28;48.07;46.59;50.11;;
66455;Laerm;57651;51.438;5.982;2022-08-21T00:15:39;48.11;46.94;49.68;;
66455;Laerm;57651;51.438;5.982;2022-08-21T00:15:50;48.06;46.68;50.24;;
66455;Laerm;57651;51.438;5.982;2022-08-21T00:16:01;48.07;46.49;49.73;;
66455;Laerm;57651;51.438;5.982;2022-08-21T00:16:12;48.24;47.12;49.84;;
66455;Laerm;57651;51.438;5.982;2022-08-21T00:16:23;48.43;47.25;50.41;;
66455;Laerm;57651;51.438;5.982;2022-08-21T00:16:34;48.31;47.24;50.02;;
66455;Laerm;57651;51.438;5.982;2022-08-21T00:16:44;48.21;47.00;50.17;;
66455;Laerm;57651;51.438;5.982;2022-08-21T00:16:55;48.27;46.89;50.57;;
66455;Laerm;57651;51.438;5.982;2022-08-21T00:17:05;50.32;47.65;53.68;;
66455;Laerm;57651;51.438;5.982;2022-08-21T00:17:16;48.51;47.22;50.29;;
66455;Laerm;57651;51.438;5.982;2022-08-21T00:17:27;48.79;47.32;50.41;;
66455;Laerm;57651;51.438;5.982;2022-08-21T00:17:37;48.71;47.26;50.21;;
66455;Laerm;57651;51.438;5.982;2022-08-21T00:17:48;48.70;47.49;50.37;;
66455;Laerm;57651;51.438;5.982;2022-08-21T00:17:59;49.48;47.31;51.53;;
66455;Laerm;57651;51.438;5.982;2022-08-21T00:18:10;48.63;47.23;50.33;;
66455;Laerm;57651;51.438;5.982;2022-08-21T00:18:20;48.63;47.34;50.74;;
66455;Laerm;57651;51.438;5.982;2022-08-21T00:18:31;48.38;46.98;50.91;;
66455;Laerm;57651;51.438;5.982;2022-08-21T00:18:42;48.21;46.92;49.88;;
66455;Laerm;57651;51.438;5.982;2022-08-21T00:18:52;48.17;46.97;50.02;;
66455;Laerm;57651;51.438;5.982;2022-08-21T00:19:04;48.26;47.04;50.57;;
66455;Laerm;57651;51.438;5.982;2022-08-21T00:19:14;48.39;47.10;50.08;;
66455;Laerm;57651;51.438;5.982;2022-08-21T00:19:25;48.33;46.70;50.07;;
66455;Laerm;57651;51.438;5.982;2022-08-21T00:19:36;48.32;47.32;49.98;;
66455;Laerm;57651;51.438;5.982;2022-08-21T00:19:46;48.34;47.17;50.04;;
66455;Laerm;57651;51.438;5.982;2022-08-21T00:19:57;48.32;47.00;49.92;;
66455;Laerm;57651;51.438;5.982;2022-08-21T00:20:09;48.40;47.02;50.59;;
66455;Laerm;57651;51.438;5.982;2022-08-21T00:20:20;48.42;47.18;50.01;;
66455;Laerm;57651;51.438;5.982;2022-08-21T00:20:31;48.56;47.11;50.57;;
66455;Laerm;57651;51.438;5.982;2022-08-21T00:20:42;48.47;47.16;50.66;;
66455;Laerm;57651;51.438;5.982;2022-08-21T00:20:53;48.41;46.93;50.23;;
66455;Laerm;57651;51.438;5.982;2022-08-21T00:21:04;48.35;47.25;50.01;;
66455;Laerm;57651;51.438;5.982;2022-08-21T00:21:15;48.40;47.02;50.02;;
66455;Laerm;57651;51.438;5.982;2022-08-21T00:21:25;48.46;47.19;50.52;;
66455;Laerm;57651;51.438;5.982;2022-08-21T00:21:36;48.50;47.28;50.37;;
66455;Laerm;57651;51.438;5.982;2022-08-21T00:21:47;48.52;47.23;50.04;;
66455;Laerm;57651;51.438;5.982;2022-08-21T00:21:57;48.49;47.50;50.54;;
66455;Laerm;57651;51.438;5.982;2022-08-21T00:22:08;48.33;46.88;49.88;;
66455;Laerm;57651;51.438;5.982;2022-08-21T00:22:18;48.35;47.08;50.30;;
66455;Laerm;57651;51.438;5.982;2022-08-21T00:22:29;48.39;46.85;50.20;;
66455;Laerm;57651;51.438;5.982;2022-08-21T00:22:41;48.39;47.20;49.86;;
66455;Laerm;57651;51.438;5.982;2022-08-21T00:22:52;48.32;46.99;50.33;;
66455;Laerm;57651;51.438;5.982;2022-08-21T00:23:02;48.49;47.19;50.37;;
66455;Laerm;57651;51.438;5.982;2022-08-21T00:23:13;48.42;47.25;50.48;;
66455;Laerm;57651;51.438;5.982;2022-08-21T00:23:24;49.03;47.47;54.20;;
66455;Laerm;57651;51.438;5.982;2022-08-21T00:23:34;49.99;47.43;53.91;;
66455;Laerm;57651;51.438;5.982;2022-08-21T00:23:45;49.61;47.28;51.92;;
66455;Laerm;57651;51.438;5.982;2022-08-21T00:23:56;50.26;47.66;52.57;;
66455;Laerm;57651;51.438;5.982;2022-08-21T00:24:06;49.60;47.93;51.80;;
66455;Laerm;57651;51.438;5.982;2022-08-21T00:24:17;50.90;48.07;53.00;;
66455;Laerm;57651;51.438;5.982;2022-08-21T00:24:27;48.54;47.35;49.99;;
66455;Laerm;57651;51.438;5.982;2022-08-21T00:24:38;48.45;47.14;49.71;;
66455;Laerm;57651;51.438;5.982;2022-08-21T00:24:48;48.30;47.17;49.79;;
66455;Laerm;57651;51.438;5.982;2022-08-21T00:24:59;48.41;47.21;51.05;;
66455;Laerm;57651;51.438;5.982;2022-08-21T00:25:10;48.38;47.11;49.92;;
66455;Laerm;57651;51.438;5.982;2022-08-21T00:25:21;48.58;47.09;50.69;;
66455;Laerm;57651;51.438;5.982;2022-08-21T00:25:32;48.67;47.12;50.07;;
66455;Laerm;57651;51.438;5.982;2022-08-21T00:25:43;48.56;47.14;52.16;;
66455;Laerm;57651;51.438;5.982;2022-08-21T00:25:53;48.47;47.02;50.43;;
66455;Laerm;57651;51.438;5.982;2022-08-21T00:26:04;50.07;47.46;52.97;;
66455;Laerm;57651;51.438;5.982;2022-08-21T00:26:15;50.82;48.40;53.22;;
66455;Laerm;57651;51.438;5.982;2022-08-21T00:26:26;51.19;48.44;53.20;;
66455;Laerm;57651;51.438;5.982;2022-08-21T00:26:36;50.80;48.67;52.74;;
66455;Laerm;57651;51.438;5.982;2022-08-21T00:26:47;50.45;48.41;52.17;;
66455;Laerm;57651;51.438;5.982;2022-08-21T00:26:57;51.45;48.90;53.53;;
66455;Laerm;57651;51.438;5.982;2022-08-21T00:27:08;51.02;49.07;53.04;;
66455;Laerm;57651;51.438;5.982;2022-08-21T00:27:21;51.07;49.07;53.81;;
66455;Laerm;57651;51.438;5.982;2022-08-21T00:27:32;50.29;48.64;52.60;;
66455;Laerm;57651;51.438;5.982;2022-08-21T00:27:43;51.01;48.09;52.92;;
66455;Laerm;57651;51.438;5.982;2022-08-21T00:27:54;52.55;50.82;54.52;;
66455;Laerm;57651;51.438;5.982;2022-08-21T00:28:05;52.08;50.39;54.23;;
66455;Laerm;57651;51.438;5.982;2022-08-21T00:28:16;52.81;50.70;54.30;;
66455;Laerm;57651;51.438;5.982;2022-08-21T00:28:27;51.04;48.03;53.90;;
66455;Laerm;57651;51.438;5.982;2022-08-21T00:28:37;51.32;48.14;54.45;;
66455;Laerm;57651;51.438;5.982;2022-08-21T00:28:48;53.44;47.16;55.77;;
66455;Laerm;57651;51.438;5.982;2022-08-21T00:29:02;48.13;46.85;49.96;;
66455;Laerm;57651;51.438;5.982;2022-08-21T00:29:13;48.41;46.78;51.31;;
66455;Laerm;57651;51.438;5.982;2022-08-21T00:29:24;48.09;46.91;49.58;;
66455;Laerm;57651;51.438;5.982;2022-08-21T00:29:35;48.06;46.83;49.82;;
66455;Laerm;57651;51.438;5.982;2022-08-21T00:29:52;48.10;46.50;49.71;;
66455;Laerm;57651;51.438;5.982;2022-08-21T00:30:07;48.59;46.90;51.60;;
66455;Laerm;57651;51.438;5.982;2022-08-21T00:30:18;48.19;47.06;50.29;;
66455;Laerm;57651;51.438;5.982;2022-08-21T00:30:29;48.45;46.97;50.76;;
66455;Laerm;57651;51.438;5.982;2022-08-21T00:30:40;48.22;46.84;50.67;;
66455;Laerm;57651;51.438;5.982;2022-08-21T00:30:51;48.36;46.86;50.48;;
66455;Laerm;57651;51.438;5.982;2022-08-21T00:31:02;48.17;46.78;50.90;;
66455;Laerm;57651;51.438;5.982;2022-08-21T00:31:14;48.15;46.93;49.94;;
66455;Laerm;57651;51.438;5.982;2022-08-21T00:31:24;48.07;46.89;50.15;;
66455;Laerm;57651;51.438;5.982;2022-08-21T00:31:35;48.27;46.85;50.51;;
66455;Laerm;57651;51.438;5.982;2022-08-21T00:31:45;48.53;46.95;50.91;;
66455;Laerm;57651;51.438;5.982;2022-08-21T00:31:56;48.15;46.91;50.01;;
66455;Laerm;57651;51.438;5.982;2022-08-21T00:32:07;48.07;46.80;49.82;;
66455;Laerm;57651;51.438;5.982;2022-08-21T00:32:21;48.11;46.89;50.10;;
66455;Laerm;57651;51.438;5.982;2022-08-21T00:32:32;48.13;46.83;49.90;;
66455;Laerm;57651;51.438;5.982;2022-08-21T00:32:42;48.19;46.84;50.31;;
66455;Laerm;57651;51.438;5.982;2022-08-21T00:32:53;48.38;47.08;50.18;;
66455;Laerm;57651;51.438;5.982;2022-08-21T00:33:05;48.06;47.08;50.01;;
66455;Laerm;57651;51.438;5.982;2022-08-21T00:33:16;48.11;46.93;50.01;;
66455;Laerm;57651;51.438;5.982;2022-08-21T00:33:26;48.07;46.73;50.08;;
66455;Laerm;57651;51.438;5.982;2022-08-21T00:33:37;48.13;46.83;49.72;;
66455;Laerm;57651;51.438;5.982;2022-08-21T00:33:48;48.09;46.86;50.38;;
66455;Laerm;57651;51.438;5.982;2022-08-21T00:34:02;48.02;46.87;50.08;;
66455;Laerm;57651;51.438;5.982;2022-08-21T00:34:13;48.05;46.59;50.38;;
66455;Laerm;57651;51.438;5.982;2022-08-21T00:34:25;49.44;47.90;52.31;;
66455;Laerm;57651;51.438;5.982;2022-08-21T00:34:35;48.72;46.86;52.09;;
66455;Laerm;57651;51.438;5.982;2022-08-21T00:34:46;48.36;46.88;50.31;;
66455;Laerm;57651;51.438;5.982;2022-08-21T00:34:56;48.47;46.93;50.94;;
66455;Laerm;57651;51.438;5.982;2022-08-21T00:35:07;48.30;46.90;50.52;;
66455;Laerm;57651;51.438;5.982;2022-08-21T00:35:20;48.40;46.75;50.53;;
66455;Laerm;57651;51.438;5.982;2022-08-21T00:35:32;48.39;46.73;50.30;;
66455;Laerm;57651;51.438;5.982;2022-08-21T00:35:43;48.19;46.91;50.44;;
66455;Laerm;57651;51.438;5.982;2022-08-21T00:35:54;48.49;47.10;50.93;;
66455;Laerm;57651;51.438;5.982;2022-08-21T00:36:04;48.36;46.88;50.18;;
66455;Laerm;57651;51.438;5.982;2022-08-21T00:36:15;48.05;46.74;49.60;;
66455;Laerm;57651;51.438;5.982;2022-08-21T00:36:26;48.09;47.06;50.26;;
66455;Laerm;57651;51.438;5.982;2022-08-21T00:36:36;48.08;46.89;49.87;;
66455;Laerm;57651;51.438;5.982;2022-08-21T00:36:47;48.27;47.15;50.13;;
66455;Laerm;57651;51.438;5.982;2022-08-21T00:36:58;48.19;46.87;50.74;;
66455;Laerm;57651;51.438;5.982;2022-08-21T00:37:08;48.04;46.86;49.76;;
66455;Laerm;57651;51.438;5.982;2022-08-21T00:37:19;48.13;47.01;50.49;;
66455;Laerm;57651;51.438;5.982;2022-08-21T00:37:29;48.10;46.74;51.18;;
66455;Laerm;57651;51.438;5.982;2022-08-21T00:37:40;48.15;47.13;49.85;;
66455;Laerm;57651;51.438;5.982;2022-08-21T00:37:51;48.13;46.91;50.05;;
66455;Laerm;57651;51.438;5.982;2022-08-21T00:38:03;49.53;46.78;55.88;;
66455;Laerm;57651;51.438;5.982;2022-08-21T00:38:13;48.06;46.91;50.20;;
66455;Laerm;57651;51.438;5.982;2022-08-21T00:38:24;48.37;46.89;51.22;;
66455;Laerm;57651;51.438;5.982;2022-08-21T00:38:35;48.15;46.88;50.53;;
66455;Laerm;57651;51.438;5.982;2022-08-21T00:38:45;48.23;46.87;50.04;;
66455;Laerm;57651;51.438;5.982;2022-08-21T00:38:56;48.20;46.84;50.97;;
66455;Laerm;57651;51.438;5.982;2022-08-21T00:39:10;48.28;46.92;50.19;;
66455;Laerm;57651;51.438;5.982;2022-08-21T00:39:20;48.37;47.10;50.32;;
66455;Laerm;57651;51.438;5.982;2022-08-21T00:39:31;48.13;47.07;49.50;;
66455;Laerm;57651;51.438;5.982;2022-08-21T00:39:42;48.34;47.22;50.05;;
66455;Laerm;57651;51.438;5.982;2022-08-21T00:39:53;48.42;46.84;50.89;;
66455;Laerm;57651;51.438;5.982;2022-08-21T00:40:04;48.18;46.76;50.27;;
66455;Laerm;57651;51.438;5.982;2022-08-21T00:40:16;48.11;46.87;50.01;;
66455;Laerm;57651;51.438;5.982;2022-08-21T00:40:29;48.24;46.82;50.02;;
66455;Laerm;57651;51.438;5.982;2022-08-21T00:40:42;48.18;47.00;50.35;;
66455;Laerm;57651;51.438;5.982;2022-08-21T00:40:55;48.21;46.81;50.33;;
66455;Laerm;57651;51.438;5.982;2022-08-21T00:41:07;48.27;47.13;50.49;;
66455;Laerm;57651;51.438;5.982;2022-08-21T00:41:17;48.31;46.67;49.88;;
66455;Laerm;57651;51.438;5.982;2022-08-21T00:41:28;48.45;46.82;50.87;;
66455;Laerm;57651;51.438;5.982;2022-08-21T00:41:39;48.56;47.20;50.22;;
66455;Laerm;57651;51.438;5.982;2022-08-21T00:41:49;48.18;47.24;50.00;;
66455;Laerm;57651;51.438;5.982;2022-08-21T00:42:00;48.59;46.88;53.52;;
66455;Laerm;57651;51.438;5.982;2022-08-21T00:42:13;48.14;46.95;50.01;;
66455;Laerm;57651;51.438;5.982;2022-08-21T00:42:25;48.14;47.01;49.91;;
66455;Laerm;57651;51.438;5.982;2022-08-21T00:42:36;48.17;46.90;50.02;;
66455;Laerm;57651;51.438;5.982;2022-08-21T00:42:46;48.09;47.09;50.48;;
66455;Laerm;57651;51.438;5.982;2022-08-21T00:42:57;48.09;47.01;49.41;;
66455;Laerm;57651;51.438;5.982;2022-08-21T00:43:08;48.31;46.82;51.84;;
66455;Laerm;57651;51.438;5.982;2022-08-21T00:43:21;48.18;47.21;50.57;;
66455;Laerm;57651;51.438;5.982;2022-08-21T00:43:32;48.24;46.95;51.26;;
66455;Laerm;57651;51.438;5.982;2022-08-21T00:43:43;48.14;46.65;50.31;;
66455;Laerm;57651;51.438;5.982;2022-08-21T00:43:54;48.33;47.06;51.16;;
66455;Laerm;57651;51.438;5.982;2022-08-21T00:44:06;48.24;47.06;50.32;;
66455;Laerm;57651;51.438;5.982;2022-08-21T00:44:17;48.27;46.64;51.62;;
66455;Laerm;57651;51.438;5.982;2022-08-21T00:44:28;48.27;46.92;50.13;;
66455;Laerm;57651;51.438;5.982;2022-08-21T00:44:38;48.27;46.88;50.24;;
66455;Laerm;57651;51.438;5.982;2022-08-21T00:44:49;48.56;47.02;50.91;;
66455;Laerm;57651;51.438;5.982;2022-08-21T00:45:00;48.71;47.09;51.30;;
66455;Laerm;57651;51.438;5.982;2022-08-21T00:45:12;48.74;47.15;51.24;;
66455;Laerm;57651;51.438;5.982;2022-08-21T00:45:22;48.55;47.17;51.50;;
66455;Laerm;57651;51.438;5.982;2022-08-21T00:45:33;48.57;47.17;51.22;;
66455;Laerm;57651;51.438;5.982;2022-08-21T00:45:44;48.82;47.05;51.05;;
66455;Laerm;57651;51.438;5.982;2022-08-21T00:45:55;49.37;47.26;50.96;;
66455;Laerm;57651;51.438;5.982;2022-08-21T00:46:06;48.19;47.10;50.05;;
66455;Laerm;57651;51.438;5.982;2022-08-21T00:46:17;48.18;46.76;50.70;;
66455;Laerm;57651;51.438;5.982;2022-08-21T00:46:28;48.48;46.86;51.97;;
66455;Laerm;57651;51.438;5.982;2022-08-21T00:46:39;48.25;47.00;50.40;;
66455;Laerm;57651;51.438;5.982;2022-08-21T00:46:52;48.20;47.05;49.83;;
66455;Laerm;57651;51.438;5.982;2022-08-21T00:47:03;48.09;46.80;50.11;;
66455;Laerm;57651;51.438;5.982;2022-08-21T00:47:14;48.12;46.67;50.49;;
66455;Laerm;57651;51.438;5.982;2022-08-21T00:47:24;48.13;46.79;49.96;;
66455;Laerm;57651;51.438;5.982;2022-08-21T00:47:35;48.12;47.09;49.71;;
66455;Laerm;57651;51.438;5.982;2022-08-21T00:47:45;48.21;46.99;51.64;;
66455;Laerm;57651;51.438;5.982;2022-08-21T00:47:56;48.09;46.79;50.08;;
66455;Laerm;57651;51.438;5.982;2022-08-21T00:48:06;48.05;46.80;50.00;;
66455;Laerm;57651;51.438;5.982;2022-08-21T00:48:17;48.10;47.07;49.85;;
66455;Laerm;57651;51.438;5.982;2022-08-21T00:48:28;48.13;46.74;49.82;;
66455;Laerm;57651;51.438;5.982;2022-08-21T00:48:38;48.28;46.76;50.30;;
66455;Laerm;57651;51.438;5.982;2022-08-21T00:48:49;48.52;47.19;50.54;;
66455;Laerm;57651;51.438;5.982;2022-08-21T00:48:59;48.24;47.07;51.17;;
66455;Laerm;57651;51.438;5.982;2022-08-21T00:49:10;48.27;47.08;50.25;;
66455;Laerm;57651;51.438;5.982;2022-08-21T00:49:21;48.10;46.82;50.30;;
66455;Laerm;57651;51.438;5.982;2022-08-21T00:49:32;48.21;47.07;49.87;;
66455;Laerm;57651;51.438;5.982;2022-08-21T00:49:43;48.15;46.77;50.07;;
66455;Laerm;57651;51.438;5.982;2022-08-21T00:49:54;48.25;46.78;51.01;;
66455;Laerm;57651;51.438;5.982;2022-08-21T00:50:06;48.14;46.91;49.95;;
66455;Laerm;57651;51.438;5.982;2022-08-21T00:50:17;48.17;46.89;50.19;;
66455;Laerm;57651;51.438;5.982;2022-08-21T00:50:29;48.21;46.80;49.85;;
66455;Laerm;57651;51.438;5.982;2022-08-21T00:50:43;48.19;47.03;49.92;;
66455;Laerm;57651;51.438;5.982;2022-08-21T00:51:00;48.10;46.99;50.20;;
66455;Laerm;57651;51.438;5.982;2022-08-21T00:51:14;48.13;46.79;50.30;;
66455;Laerm;57651;51.438;5.982;2022-08-21T00:51:29;48.11;46.81;50.22;;
66455;Laerm;57651;51.438;5.982;2022-08-21T00:51:43;48.07;46.82;50.00;;
66455;Laerm;57651;51.438;5.982;2022-08-21T00:51:55;48.11;46.72;50.12;;
66455;Laerm;57651;51.438;5.982;2022-08-21T00:52:09;48.05;47.06;49.83;;
66455;Laerm;57651;51.438;5.982;2022-08-21T00:52:22;48.06;46.94;49.63;;
66455;Laerm;57651;51.438;5.982;2022-08-21T00:52:34;48.45;47.03;51.40;;
66455;Laerm;57651;51.438;5.982;2022-08-21T00:52:45;48.30;47.10;50.01;;
66455;Laerm;57651;51.438;5.982;2022-08-21T00:52:56;48.91;47.29;50.57;;
66455;Laerm;57651;51.438;5.982;2022-08-21T00:53:07;48.41;47.13;50.83;;
66455;Laerm;57651;51.438;5.982;2022-08-21T00:53:20;48.24;46.96;50.20;;
66455;Laerm;57651;51.438;5.982;2022-08-21T00:53:31;48.14;46.99;50.40;;
66455;Laerm;57651;51.438;5.982;2022-08-21T00:53:43;48.14;46.95;50.38;;
66455;Laerm;57651;51.438;5.982;2022-08-21T00:53:55;48.28;46.85;52.63;;
66455;Laerm;57651;51.438;5.982;2022-08-21T00:54:07;48.31;47.16;51.73;;
66455;Laerm;57651;51.438;5.982;2022-08-21T00:54:21;48.29;46.88;50.42;;
66455;Laerm;57651;51.438;5.982;2022-08-21T00:54:32;48.23;47.01;50.11;;
66455;Laerm;57651;51.438;5.982;2022-08-21T00:54:43;48.18;46.96;49.95;;
66455;Laerm;57651;51.438;5.982;2022-08-21T00:54:55;48.86;47.10;52.94;;
66455;Laerm;57651;51.438;5.982;2022-08-21T00:55:08;48.66;47.42;50.47;;
66455;Laerm;57651;51.438;5.982;2022-08-21T00:55:20;48.64;47.21;52.79;;
66455;Laerm;57651;51.438;5.982;2022-08-21T00:55:32;48.37;46.91;50.73;;
66455;Laerm;57651;51.438;5.982;2022-08-21T00:55:44;48.57;46.96;52.17;;
66455;Laerm;57651;51.438;5.982;2022-08-21T00:55:55;48.34;46.92;50.28;;
66455;Laerm;57651;51.438;5.982;2022-08-21T00:56:06;48.12;46.85;49.68;;
66455;Laerm;57651;51.438;5.982;2022-08-21T00:56:17;48.10;46.87;49.97;;
66455;Laerm;57651;51.438;5.982;2022-08-21T00:56:29;48.19;46.78;50.08;;
66455;Laerm;57651;51.438;5.982;2022-08-21T00:56:39;48.18;46.80;49.86;;
66455;Laerm;57651;51.438;5.982;2022-08-21T00:56:52;48.26;47.02;50.18;;
66455;Laerm;57651;51.438;5.982;2022-08-21T00:57:05;48.18;47.00;49.99;;
66455;Laerm;57651;51.438;5.982;2022-08-21T00:57:20;48.18;46.73;50.01;;
66455;Laerm;57651;51.438;5.982;2022-08-21T00:58:05;48.10;46.92;50.45;;
66455;Laerm;57651;51.438;5.982;2022-08-21T00:58:13;48.13;47.03;50.13;;
66455;Laerm;57651;51.438;5.982;2022-08-21T00:58:17;48.12;46.77;49.64;;
66455;Laerm;57651;51.438;5.982;2022-08-21T00:58:28;48.18;46.69;49.71;;
66455;Laerm;57651;51.438;5.982;2022-08-21T00:58:41;48.17;46.92;50.29;;
66455;Laerm;57651;51.438;5.982;2022-08-21T00:58:53;48.15;46.83;50.57;;
66455;Laerm;57651;51.438;5.982;2022-08-21T00:59:04;48.34;47.03;51.22;;
66455;Laerm;57651;51.438;5.982;2022-08-21T00:59:16;48.23;46.90;50.65;;
66455;Laerm;57651;51.438;5.982;2022-08-21T00:59:28;48.20;46.75;50.62;;
66455;Laerm;57651;51.438;5.982;2022-08-21T00:59:43;48.28;46.91;50.61;;
66455;Laerm;57651;51.438;5.982;2022-08-21T00:59:56;48.44;46.94;50.28;;
66455;Laerm;57651;51.438;5.982;2022-08-21T01:00:10;48.48;47.05;50.39;;
66455;Laerm;57651;51.438;5.982;2022-08-21T01:00:23;48.37;46.96;50.42;;
66455;Laerm;57651;51.438;5.982;2022-08-21T01:00:35;48.19;46.99;50.15;;
66455;Laerm;57651;51.438;5.982;2022-08-21T01:00:48;48.22;47.00;50.64;;
66455;Laerm;57651;51.438;5.982;2022-08-21T01:01:00;48.31;47.01;50.50;;
66455;Laerm;57651;51.438;5.982;2022-08-21T01:01:11;48.18;46.98;50.37;;
66455;Laerm;57651;51.438;5.982;2022-08-21T01:01:22;48.10;47.04;50.11;;
66455;Laerm;57651;51.438;5.982;2022-08-21T01:01:33;48.13;46.83;49.95;;
66455;Laerm;57651;51.438;5.982;2022-08-21T01:01:44;48.07;46.98;49.64;;
66455;Laerm;57651;51.438;5.982;2022-08-21T01:01:54;49.15;47.12;51.72;;
66455;Laerm;57651;51.438;5.982;2022-08-21T01:02:06;49.44;47.29;50.91;;
66455;Laerm;57651;51.438;5.982;2022-08-21T01:02:18;48.44;46.96;51.76;;
66455;Laerm;57651;51.438;5.982;2022-08-21T01:02:28;48.49;46.89;50.82;;
66455;Laerm;57651;51.438;5.982;2022-08-21T01:02:39;48.33;47.09;50.52;;
66455;Laerm;57651;51.438;5.982;2022-08-21T01:02:49;48.21;47.05;50.40;;
66455;Laerm;57651;51.438;5.982;2022-08-21T01:03:01;48.22;47.14;50.31;;
66455;Laerm;57651;51.438;5.982;2022-08-21T01:03:13;48.44;46.94;50.78;;
66455;Laerm;57651;51.438;5.982;2022-08-21T01:03:24;48.17;47.01;50.57;;
66455;Laerm;57651;51.438;5.982;2022-08-21T01:03:36;48.14;46.94;49.76;;